Time;durP1;ratioP1;P1;durP2;ratioP2;P2;SDS_P1;SDS_P2;PMS_P1;PMS_P2;Temp;Humidity;BMP_temperature;BMP_pressure;BME280_temperature;BME280_humidity;BME280_pressure;Samples;Min_cycle;Max_cycle;Signal;HPM_P1;HPM_P2
2021/01/05 00:02:13;;;;;;;8.75;4.53;;;;;;;2.08;100.00;101765.91;4800025;29;20051;-79
2021/01/05 00:04:41;;;;;;;8.43;4.85;;;;;;;2.13;100.00;101777.22;4802896;29;20483;-79
2021/01/05 00:07:07;;;;;;;7.72;4.57;;;;;;;2.15;100.00;101774.63;4818656;29;20034;-79
2021/01/05 00:09:32;;;;;;;5.28;4.57;;;;;;;2.10;100.00;101766.78;4820688;29;20053;-80
2021/01/05 00:12:06;;;;;;;7.55;4.65;;;;;;;2.11;100.00;101771.16;4821562;29;20030;-79
2021/01/05 00:14:32;;;;;;;8.60;4.40;;;;;;;2.16;100.00;101773.75;4823372;29;20035;-79
2021/01/05 00:16:57;;;;;;;7.35;4.70;;;;;;;2.05;100.00;101771.09;4822676;29;20046;-79
2021/01/05 00:19:24;;;;;;;7.03;4.85;;;;;;;2.06;100.00;101781.56;4806670;29;20094;-79
2021/01/05 00:21:51;;;;;;;6.97;4.90;;;;;;;2.07;100.00;101770.25;4821628;29;20038;-79
2021/01/05 00:24:16;;;;;;;5.63;4.70;;;;;;;2.12;100.00;101774.63;4823780;29;20049;-79
2021/01/05 00:26:41;;;;;;;6.03;4.25;;;;;;;2.02;100.00;101776.31;4803606;29;20547;-80
2021/01/05 00:29:08;;;;;;;5.93;4.80;;;;;;;2.10;100.00;101776.34;4832557;29;20116;-78
2021/01/05 00:31:33;;;;;;;6.30;4.43;;;;;;;2.14;100.00;101771.16;4821342;29;20042;-79
2021/01/05 00:33:58;;;;;;;5.40;4.63;;;;;;;2.06;100.00;101765.03;4823394;29;20034;-79
2021/01/05 00:36:24;;;;;;;6.00;4.78;;;;;;;2.03;100.00;101768.50;4805247;29;20031;-79
2021/01/05 00:38:49;;;;;;;8.25;5.40;;;;;;;2.01;100.00;101767.63;4824064;29;20049;-79
2021/01/05 00:41:15;;;;;;;9.02;4.70;;;;;;;2.09;100.00;101770.25;4815726;29;20263;-79
2021/01/05 00:43:40;;;;;;;7.97;5.15;;;;;;;2.06;100.00;101772.88;4822924;29;20801;-80
2021/01/05 00:46:10;;;;;;;6.30;4.90;;;;;;;2.04;100.00;101779.78;4823067;29;20049;-80
2021/01/05 00:48:36;;;;;;;7.45;5.60;;;;;;;2.02;100.00;101774.56;4824825;29;20030;-79
2021/01/05 00:51:01;;;;;;;9.85;6.05;;;;;;;2.05;100.00;101766.75;4821820;29;20188;-80
2021/01/05 00:53:26;;;;;;;5.47;4.50;;;;;;;2.06;100.00;101778.06;4824337;29;20047;-80
2021/01/05 00:55:51;;;;;;;6.78;4.88;;;;;;;2.07;100.00;101775.47;4806405;29;20042;-81
2021/01/05 00:58:17;;;;;;;6.05;4.88;;;;;;;2.01;100.00;101782.41;4817656;29;20064;-81
2021/01/05 01:00:43;;;;;;;8.25;5.28;;;;;;;1.98;100.00;101783.22;4816142;29;20065;-81
2021/01/05 01:03:08;;;;;;;6.25;4.47;;;;;;;2.01;100.00;101779.78;4821175;29;20458;-81
2021/01/05 01:05:33;;;;;;;11.38;5.90;;;;;;;1.99;100.00;101779.75;4808175;29;20602;-81
2021/01/05 01:07:58;;;;;;;5.72;4.78;;;;;;;2.00;100.00;101781.50;4819179;29;20043;-80
2021/01/05 01:10:25;;;;;;;6.57;4.85;;;;;;;2.04;100.00;101783.25;4820528;29;20037;-80
2021/01/05 01:12:50;;;;;;;7.07;5.10;;;;;;;1.92;100.00;101780.59;4825235;29;20042;-79
2021/01/05 01:15:16;;;;;;;5.93;5.03;;;;;;;1.92;100.00;101780.59;4827699;29;20049;-80
2021/01/05 01:17:41;;;;;;;8.32;6.00;;;;;;;2.00;100.00;101783.22;4820393;29;20053;-80
2021/01/05 01:20:08;;;;;;;7.68;5.40;;;;;;;2.08;100.00;101782.41;4812720;29;20034;-80
2021/01/05 01:22:33;;;;;;;6.22;4.57;;;;;;;2.02;100.00;101771.09;4822288;29;20034;-80
2021/01/05 01:24:58;;;;;;;7.65;4.82;;;;;;;2.00;100.00;101784.09;4824896;29;20039;-80
2021/01/05 01:27:23;;;;;;;6.25;5.00;;;;;;;1.98;100.00;101785.84;4824273;29;20084;-79
2021/01/05 01:29:49;;;;;;;8.60;5.15;;;;;;;2.02;100.00;101778.91;4821897;29;20045;-79
2021/01/05 01:32:15;;;;;;;6.97;4.80;;;;;;;2.03;100.00;101786.75;4821397;29;20092;-80
2021/01/05 01:34:40;;;;;;;6.10;4.68;;;;;;;2.08;100.00;101789.38;4823198;29;20039;-80
2021/01/05 01:37:12;;;;;;;6.47;4.68;;;;;;;2.04;100.00;101792.81;4818878;29;20031;-80
2021/01/05 01:39:40;;;;;;;5.88;5.00;;;;;;;2.09;100.00;101783.28;4819921;29;20094;-79
2021/01/05 01:42:07;;;;;;;7.85;5.32;;;;;;;2.09;100.00;101793.72;4817831;29;20040;-81
2021/01/05 01:44:36;;;;;;;8.68;5.20;;;;;;;2.15;100.00;101785.06;4826087;29;20026;-80
2021/01/05 01:47:10;;;;;;;5.88;4.68;;;;;;;2.11;100.00;101789.41;4833953;29;20062;-80
2021/01/05 01:49:36;;;;;;;9.35;4.95;;;;;;;2.14;100.00;101788.53;4835509;29;20082;-80
2021/01/05 01:52:02;;;;;;;7.13;5.35;;;;;;;2.08;100.00;101790.25;4828742;29;20034;-80
2021/01/05 01:54:55;;;;;;;6.75;5.10;;;;;;;2.07;100.00;101782.44;4825481;29;20030;-80
2021/01/05 01:57:32;;;;;;;7.32;5.25;;;;;;;2.12;100.00;101785.94;4822204;29;20048;-82
2021/01/05 02:00:43;;;;;;;8.32;5.25;;;;;;;2.16;100.00;101785.09;4825533;29;20045;-80
2021/01/05 02:03:25;;;;;;;5.80;4.55;;;;;;;2.01;100.00;101785.00;4744654;30;20055;-80
2021/01/05 02:06:28;;;;;;;6.30;4.82;;;;;;;2.03;100.00;101785.88;4767820;30;20420;-80
2021/01/05 02:09:27;;;;;;;8.23;5.47;;;;;;;1.96;100.00;101781.50;4768452;30;20811;-81
2021/01/05 02:12:14;;;;;;;8.45;5.25;;;;;;;2.05;100.00;101790.22;4766919;30;20122;-80
2021/01/05 02:15:08;;;;;;;7.10;5.13;;;;;;;1.99;100.00;101784.09;4755317;30;20043;-80
2021/01/05 02:17:59;;;;;;;6.78;5.18;;;;;;;2.16;100.00;101784.19;4765815;30;20039;-80
2021/01/05 02:20:30;;;;;;;7.35;5.65;;;;;;;2.13;100.00;101785.06;4768806;30;20050;-80
2021/01/05 02:23:14;;;;;;;10.23;5.55;;;;;;;1.98;100.00;101785.84;4767049;30;20050;-80
2021/01/05 02:25:55;;;;;;;7.35;5.00;;;;;;;2.06;100.00;101776.34;4765268;30;20040;-79
2021/01/05 02:28:24;;;;;;;6.75;4.80;;;;;;;2.10;100.00;101779.81;4765108;30;20030;-79
2021/01/05 02:31:01;;;;;;;7.30;5.47;;;;;;;2.01;100.00;101779.78;4764756;30;20038;-79
2021/01/05 02:33:52;;;;;;;6.78;5.35;;;;;;;2.01;100.00;101778.06;4764662;30;20058;-79
2021/01/05 02:36:34;;;;;;;7.57;5.05;;;;;;;2.06;100.00;101775.47;4768530;30;20760;-80
2021/01/05 02:39:06;;;;;;;8.82;5.30;;;;;;;2.00;100.00;101778.88;4775955;29;20043;-80
2021/01/05 02:41:41;;;;;;;8.43;6.07;;;;;;;1.95;100.00;101778.00;4810640;29;20039;-80
2021/01/05 02:44:23;;;;;;;6.50;5.25;;;;;;;2.01;100.00;101785.00;4821341;29;20113;-80
2021/01/05 02:46:53;;;;;;;7.75;5.15;;;;;;;2.02;100.00;101769.34;4804056;29;20046;-80
2021/01/05 02:49:37;;;;;;;8.70;6.10;;;;;;;1.96;100.00;101777.16;4801524;29;20031;-79
2021/01/05 02:52:40;;;;;;;6.82;5.20;;;;;;;2.03;100.00;101768.50;4804767;29;20427;-80
2021/01/05 02:55:33;;;;;;;5.82;5.15;;;;;;;2.04;100.00;101777.19;4823857;29;20030;-81
2021/01/05 02:58:16;;;;;;;7.22;4.85;;;;;;;2.05;100.00;101771.09;4821253;29;20392;-80
2021/01/05 03:01:06;;;;;;;7.15;4.85;;;;;;;2.06;100.00;101776.34;4821023;29;20034;-80
2021/01/05 03:03:45;;;;;;;6.35;4.80;;;;;;;2.00;100.00;101770.19;4827696;29;20046;-81
2021/01/05 03:06:19;;;;;;;5.78;4.78;;;;;;;2.00;100.00;101772.81;4825927;29;20038;-80
2021/01/05 03:09:10;;;;;;;6.72;5.10;;;;;;;2.04;100.00;101766.75;4826833;29;20085;-80
2021/01/05 03:12:05;;;;;;;6.97;5.03;;;;;;;2.02;100.00;101771.09;4822957;29;20056;-80
2021/01/05 03:14:43;;;;;;;6.38;4.97;;;;;;;2.02;100.00;101763.28;4805048;29;20076;-81
2021/01/05 03:17:21;;;;;;;9.57;5.22;;;;;;;2.07;100.00;101766.78;4804684;29;20049;-80
2021/01/05 03:19:59;;;;;;;7.75;5.50;;;;;;;2.05;100.00;101758.91;4816288;29;20048;-80
2021/01/05 03:22:28;;;;;;;6.47;5.00;;;;;;;2.02;100.00;101769.34;4822610;29;20036;-80
2021/01/05 03:24:55;;;;;;;7.57;5.22;;;;;;;2.03;100.00;101765.00;4809759;29;20050;-80
2021/01/05 03:27:21;;;;;;;8.10;5.97;;;;;;;1.98;100.00;101767.59;4825045;29;20501;-79
2021/01/05 03:29:47;;;;;;;7.05;5.55;;;;;;;1.98;100.00;101770.19;4811310;29;20095;-80
2021/01/05 03:32:12;;;;;;;7.05;5.53;;;;;;;1.98;100.00;101762.38;4823101;29;20097;-80
2021/01/05 03:34:38;;;;;;;8.88;5.70;;;;;;;1.97;100.00;101771.06;4805575;29;20031;-81
2021/01/05 03:37:04;;;;;;;8.45;5.70;;;;;;;2.04;99.66;101765.00;4808299;29;20042;-80
2021/01/05 03:39:29;;;;;;;7.13;5.57;;;;;;;1.93;99.76;101761.47;4820164;29;20129;-80
2021/01/05 03:41:54;;;;;;;8.80;5.63;;;;;;;1.94;100.00;101763.22;4815393;29;20068;-80
2021/01/05 03:44:20;;;;;;;10.35;6.60;;;;;;;1.91;100.00;101764.94;4805366;29;20054;-80
2021/01/05 03:46:45;;;;;;;7.38;5.85;;;;;;;1.92;100.00;101757.13;4806281;29;20049;-80
2021/01/05 03:49:10;;;;;;;8.48;5.68;;;;;;;1.95;100.00;101756.25;4822805;29;20045;-80
2021/01/05 03:51:36;;;;;;;6.95;5.20;;;;;;;1.95;99.90;101759.75;4804558;29;20045;-80
2021/01/05 03:54:01;;;;;;;6.72;4.82;;;;;;;1.94;100.00;101759.75;4819372;29;20459;-80
2021/01/05 03:56:26;;;;;;;6.60;5.05;;;;;;;1.92;99.68;101758.88;4819182;29;20058;-81
2021/01/05 03:58:51;;;;;;;5.97;4.65;;;;;;;1.88;100.00;101757.09;4822679;29;20044;-80
2021/01/05 04:01:17;;;;;;;6.95;5.10;;;;;;;1.95;99.84;101754.53;4799348;29;20031;-80
2021/01/05 04:03:43;;;;;;;6.88;5.32;;;;;;;1.88;99.38;101757.09;4818804;29;20136;-80
2021/01/05 04:06:09;;;;;;;7.57;5.50;;;;;;;1.95;99.44;101762.34;4822695;29;20027;-80
2021/01/05 04:08:35;;;;;;;7.05;5.10;;;;;;;1.96;99.56;101758.03;4820576;29;20042;-80
2021/01/05 04:11:00;;;;;;;7.68;5.60;;;;;;;1.99;99.82;101758.91;4815678;29;20046;-80
2021/01/05 04:13:25;;;;;;;6.63;4.90;;;;;;;1.89;100.00;101764.94;4806024;29;20079;-80
2021/01/05 04:15:51;;;;;;;6.30;4.75;;;;;;;1.97;100.00;101757.16;4821383;29;20030;-79
2021/01/05 04:18:16;;;;;;;5.95;4.80;;;;;;;1.97;99.96;101764.97;4823888;29;20108;-80
2021/01/05 04:20:41;;;;;;;7.32;5.10;;;;;;;1.86;100.00;101756.19;4804434;29;20038;-80
2021/01/05 04:23:07;;;;;;;8.98;5.40;;;;;;;1.94;100.00;101752.78;4822928;29;20062;-79
2021/01/05 04:25:32;;;;;;;8.25;6.47;;;;;;;1.97;100.00;101749.34;4822791;29;20501;-80
2021/01/05 04:27:58;;;;;;;6.72;5.20;;;;;;;1.91;100.00;101759.72;4826201;29;20119;-80
2021/01/05 04:30:41;;;;;;;7.72;5.80;;;;;;;1.88;100.00;101751.88;4820556;29;20084;-79
2021/01/05 04:33:10;;;;;;;7.65;5.95;;;;;;;1.88;100.00;101755.38;4833626;29;20030;-80
2021/01/05 04:35:36;;;;;;;9.43;6.18;;;;;;;1.87;100.00;101751.03;4821835;29;20133;-79
2021/01/05 04:38:02;;;;;;;9.35;6.15;;;;;;;1.93;100.00;101751.03;4830798;29;20039;-79
2021/01/05 04:40:42;;;;;;;8.38;6.05;;;;;;;1.97;100.00;101751.94;4828788;29;20490;-79
2021/01/05 04:43:16;;;;;;;7.95;5.90;;;;;;;1.93;100.00;101750.19;4829158;29;20045;-80
2021/01/05 04:46:06;;;;;;;8.65;6.13;;;;;;;1.91;100.00;101739.75;4822621;29;20102;-80
2021/01/05 04:49:00;;;;;;;6.22;4.70;;;;;;;2.02;100.00;101745.88;4823837;29;20034;-80
2021/01/05 04:51:34;;;;;;;9.00;5.97;;;;;;;1.97;100.00;101750.22;4806300;29;20429;-80
2021/01/05 04:54:25;;;;;;;7.88;5.45;;;;;;;2.01;99.64;101746.75;4815128;29;20034;-80
2021/01/05 04:56:55;;;;;;;11.52;6.63;;;;;;;1.99;99.95;101750.22;4824317;29;20648;-80
2021/01/05 04:59:25;;;;;;;7.82;6.07;;;;;;;1.95;99.85;101749.31;4811566;29;20159;-81
2021/01/05 05:01:50;;;;;;;8.35;5.65;;;;;;;1.93;100.00;101744.97;4808854;29;20121;-80
2021/01/05 05:04:55;;;;;;;8.40;5.78;;;;;;;1.96;100.00;101745.88;4823497;29;20121;-80
2021/01/05 05:07:52;;;;;;;8.38;5.78;;;;;;;2.05;99.42;101750.22;4785050;29;20050;-80
2021/01/05 05:10:25;;;;;;;7.90;5.70;;;;;;;2.00;98.63;101746.72;4763552;29;20039;-80
2021/01/05 05:13:01;;;;;;;7.65;5.90;;;;;;;2.02;99.14;101755.44;4787274;29;20046;-80
2021/01/05 05:15:49;;;;;;;7.90;5.75;;;;;;;2.04;98.94;101753.72;4783005;29;20039;-80
2021/01/05 05:18:17;;;;;;;9.65;6.50;;;;;;;2.04;98.97;101753.72;4781024;29;20039;-80
2021/01/05 05:20:45;;;;;;;6.50;5.07;;;;;;;2.05;98.76;101761.53;4785396;29;20077;-80
2021/01/05 05:23:21;;;;;;;9.05;6.20;;;;;;;2.03;98.90;101758.06;4793162;29;20519;-79
2021/01/05 05:26:00;;;;;;;8.88;6.35;;;;;;;2.02;98.92;101763.28;4777040;29;20088;-80
2021/01/05 05:28:33;;;;;;;8.77;6.18;;;;;;;2.03;98.82;101765.00;4793163;29;20043;-80
2021/01/05 05:31:02;;;;;;;8.98;6.00;;;;;;;2.03;99.14;101770.22;4793323;29;20727;-80
2021/01/05 05:33:31;;;;;;;9.57;6.82;;;;;;;1.99;99.20;101784.09;4788781;29;20550;-79
2021/01/05 05:36:19;;;;;;;10.15;6.30;;;;;;;2.01;98.78;101775.44;4773715;30;20039;-79
2021/01/05 05:38:59;;;;;;;9.30;6.82;;;;;;;2.03;99.12;101776.31;4794351;29;20149;-79
2021/01/05 05:41:58;;;;;;;10.23;6.88;;;;;;;1.98;98.74;101777.16;4786504;29;20769;-79
2021/01/05 05:44:31;;;;;;;12.63;7.40;;;;;;;2.02;98.91;101779.78;4831847;29;20474;-80
2021/01/05 05:47:21;;;;;;;10.15;7.78;;;;;;;2.01;99.37;101771.97;4810045;29;20399;-80
2021/01/05 05:49:49;;;;;;;10.25;6.97;;;;;;;1.99;99.32;101777.16;4820678;29;20546;-81
2021/01/05 05:52:25;;;;;;;10.27;6.95;;;;;;;2.01;99.11;101771.97;4822410;29;20463;-81
2021/01/05 05:54:52;;;;;;;10.77;7.63;;;;;;;2.09;98.99;101780.69;4824040;29;20030;-79
2021/01/05 05:57:29;;;;;;;12.65;8.43;;;;;;;2.06;99.45;101784.16;4811099;29;20038;-79
2021/01/05 06:00:04;;;;;;;11.05;7.20;;;;;;;2.03;99.84;101781.53;4823509;29;20045;-80
2021/01/05 06:02:29;;;;;;;17.50;9.45;;;;;;;2.00;99.48;101788.44;4822236;29;20054;-80
2021/01/05 06:04:57;;;;;;;13.65;7.85;;;;;;;2.06;99.39;101789.38;4807328;29;20034;-81
2021/01/05 06:07:22;;;;;;;13.88;7.93;;;;;;;2.01;99.40;101792.81;4825570;29;20041;-80
2021/01/05 06:09:47;;;;;;;12.88;8.15;;;;;;;1.95;100.00;101793.63;4822218;29;20030;-81
2021/01/05 06:12:13;;;;;;;12.43;7.85;;;;;;;1.95;100.00;101792.75;4822833;29;20139;-80
2021/01/05 06:14:38;;;;;;;13.55;8.80;;;;;;;1.93;99.88;101800.59;4823015;29;20038;-80
2021/01/05 06:17:03;;;;;;;12.57;7.85;;;;;;;2.05;100.00;101797.16;4823345;29;20025;-80
2021/01/05 06:19:28;;;;;;;13.90;8.73;;;;;;;2.00;100.00;101802.34;4825180;29;20391;-79
2021/01/05 06:21:54;;;;;;;14.45;8.45;;;;;;;1.99;100.00;101798.00;4819844;29;20146;-80
2021/01/05 06:24:19;;;;;;;11.60;7.20;;;;;;;2.00;100.00;101797.13;4822095;29;20785;-80
2021/01/05 06:26:44;;;;;;;14.27;8.82;;;;;;;1.99;100.00;101802.34;4815567;29;20435;-80
2021/01/05 06:29:09;;;;;;;13.95;8.88;;;;;;;2.00;100.00;101811.91;4805451;29;20502;-80
2021/01/05 06:31:35;;;;;;;12.95;8.77;;;;;;;1.94;100.00;101817.09;4817737;29;20038;-79
2021/01/05 06:34:00;;;;;;;12.88;7.88;;;;;;;2.00;100.00;101818.00;4807542;29;20096;-80
2021/01/05 06:36:25;;;;;;;18.23;9.38;;;;;;;1.99;100.00;101824.09;4806426;29;20031;-79
2021/01/05 06:38:51;;;;;;;15.80;9.43;;;;;;;2.03;100.00;101827.59;4820893;29;20054;-80
2021/01/05 06:41:16;;;;;;;15.00;9.02;;;;;;;2.02;100.00;101821.50;4811230;29;20034;-79
2021/01/05 06:43:42;;;;;;;13.43;8.50;;;;;;;2.03;100.00;101819.78;4805264;29;20031;-79
2021/01/05 06:46:09;;;;;;;18.55;11.35;;;;;;;2.02;100.00;101828.47;4800299;29;20081;-79
2021/01/05 06:48:35;;;;;;;16.92;9.60;;;;;;;2.03;100.00;101819.78;4813398;29;20522;-80
2021/01/05 06:51:01;;;;;;;13.63;9.10;;;;;;;2.06;100.00;101825.03;4818127;29;20566;-79
2021/01/05 06:53:26;;;;;;;16.52;9.82;;;;;;;1.97;100.00;101828.44;4803701;29;20086;-78
2021/01/05 06:55:52;;;;;;;14.95;9.88;;;;;;;2.07;100.00;101829.38;4813255;29;20078;-79
2021/01/05 06:58:17;;;;;;;16.65;10.15;;;;;;;1.95;100.00;101827.53;4843887;29;20036;-79
2021/01/05 07:00:42;;;;;;;16.05;10.05;;;;;;;2.01;100.00;101824.13;4843569;29;20714;-80
2021/01/05 07:03:07;;;;;;;18.48;9.85;;;;;;;2.00;100.00;101827.56;4840881;29;20042;-79
2021/01/05 07:05:33;;;;;;;15.77;9.35;;;;;;;2.02;100.00;101821.50;4816024;29;20121;-80
2021/01/05 07:07:58;;;;;;;20.13;10.73;;;;;;;2.03;100.00;101824.97;4823269;29;20026;-80
2021/01/05 07:10:24;;;;;;;16.85;10.40;;;;;;;2.10;100.00;101821.53;4822442;29;20438;-79
2021/01/05 07:12:49;;;;;;;19.15;11.52;;;;;;;2.12;100.00;101826.78;4830504;29;20027;-80
2021/01/05 07:15:17;;;;;;;18.00;10.27;;;;;;;2.03;100.00;101831.06;4815667;29;20052;-80
2021/01/05 07:17:43;;;;;;;17.65;9.57;;;;;;;2.08;100.00;101824.16;4818982;29;20547;-80
2021/01/05 07:20:09;;;;;;;18.15;11.00;;;;;;;1.95;100.00;101827.53;4800801;29;20122;-80
2021/01/05 07:22:35;;;;;;;16.75;10.20;;;;;;;2.05;100.00;101834.53;4820356;29;20054;-80
2021/01/05 07:25:03;;;;;;;17.27;10.77;;;;;;;2.08;100.00;101828.50;4819989;29;20042;-80
2021/01/05 07:27:29;;;;;;;15.13;10.15;;;;;;;2.08;100.00;101829.38;4819068;29;20018;-80
2021/01/05 07:29:54;;;;;;;22.17;17.05;;;;;;;2.03;100.00;101844.09;4817400;29;20026;-80
2021/01/05 07:32:20;;;;;;;18.02;10.98;;;;;;;2.03;100.00;101844.09;4815705;29;20022;-80
2021/01/05 07:34:45;;;;;;;17.85;11.00;;;;;;;2.10;100.00;101844.13;4803248;29;20713;-81
2021/01/05 07:37:15;;;;;;;18.38;10.93;;;;;;;2.05;100.00;101839.75;4806392;29;20045;-81
2021/01/05 07:39:40;;;;;;;17.70;10.73;;;;;;;2.07;100.00;101839.78;4826123;29;20073;-81
2021/01/05 07:42:15;;;;;;;17.58;10.52;;;;;;;2.06;100.00;101845.88;4828579;29;20038;-81
2021/01/05 07:44:40;;;;;;;18.98;11.63;;;;;;;2.01;100.00;101843.25;4813628;29;20504;-80
2021/01/05 07:47:07;;;;;;;17.50;10.95;;;;;;;2.06;100.00;101851.97;4819276;29;20074;-81
2021/01/05 07:49:32;;;;;;;17.23;10.82;;;;;;;2.14;100.00;101851.13;4823680;29;20041;-81
2021/01/05 07:51:57;;;;;;;26.70;14.15;;;;;;;2.08;100.00;101857.19;4807980;29;20031;-81
2021/01/05 07:54:22;;;;;;;23.52;13.32;;;;;;;2.05;100.00;101852.81;4808721;29;20057;-81
2021/01/05 07:56:48;;;;;;;19.27;11.88;;;;;;;2.05;100.00;101858.00;4823630;29;20211;-81
2021/01/05 07:59:13;;;;;;;18.38;10.88;;;;;;;2.04;100.00;101853.66;4819620;29;20053;-80
2021/01/05 08:01:38;;;;;;;18.52;10.77;;;;;;;2.03;100.00;101854.53;4818999;29;20042;-80
2021/01/05 08:04:04;;;;;;;17.80;10.38;;;;;;;2.08;100.00;101857.19;4827127;29;20034;-80
2021/01/05 08:06:29;;;;;;;18.45;11.02;;;;;;;2.11;100.00;101854.59;4823298;29;20022;-80
2021/01/05 08:09:01;;;;;;;16.08;10.65;;;;;;;2.06;100.00;101851.97;4819293;29;20332;-81
2021/01/05 08:11:34;;;;;;;17.20;10.00;;;;;;;2.13;100.00;101859.81;4775241;29;20072;-81
2021/01/05 08:14:00;;;;;;;16.27;10.05;;;;;;;2.08;100.00;101862.41;4824774;29;20038;-81
2021/01/05 08:16:25;;;;;;;15.68;10.18;;;;;;;2.17;100.00;101857.25;4836995;29;20567;-81
2021/01/05 08:18:50;;;;;;;16.45;10.73;;;;;;;2.15;100.00;101860.69;4834001;29;20128;-80
2021/01/05 08:21:22;;;;;;;15.13;9.98;;;;;;;2.21;100.00;101859.00;4813351;29;20042;-80
2021/01/05 08:23:47;;;;;;;16.60;10.38;;;;;;;2.20;100.00;101859.84;4814726;29;20114;-80
2021/01/05 08:26:12;;;;;;;20.00;11.18;;;;;;;2.21;100.00;101866.84;4821331;29;20071;-80
2021/01/05 08:28:38;;;;;;;26.40;12.25;;;;;;;2.18;100.00;101860.72;4830040;29;20766;-82
2021/01/05 08:31:03;;;;;;;15.65;10.07;;;;;;;2.24;100.00;101858.16;4807088;29;20038;-81
2021/01/05 08:33:28;;;;;;;16.73;9.80;;;;;;;2.27;100.00;101852.97;4808651;29;20058;-80
2021/01/05 08:35:53;;;;;;;19.70;12.38;;;;;;;2.17;100.00;101858.97;4827522;29;20034;-80
2021/01/05 08:38:19;;;;;;;16.27;10.13;;;;;;;2.18;100.00;101858.97;4822917;29;20395;-81
2021/01/05 08:40:44;;;;;;;19.63;12.80;;;;;;;2.23;100.00;101851.19;4819199;29;20022;-80
2021/01/05 08:43:12;;;;;;;17.45;10.35;;;;;;;2.25;100.00;101855.53;4820403;29;20474;-80
2021/01/05 08:45:40;;;;;;;15.43;10.55;;;;;;;2.30;100.00;101851.22;4805542;29;20103;-81
2021/01/05 08:48:05;;;;;;;14.80;9.95;;;;;;;2.25;100.00;101860.75;4826115;29;20132;-81
2021/01/05 08:50:32;;;;;;;20.98;12.05;;;;;;;2.36;100.00;101859.94;4820634;29;20078;-79
2021/01/05 08:53:09;;;;;;;16.27;10.68;;;;;;;2.37;100.00;101856.50;4810157;29;20479;-79
2021/01/05 08:55:36;;;;;;;17.90;10.73;;;;;;;2.45;100.00;101846.94;4823242;29;20052;-83
2021/01/05 08:58:02;;;;;;;16.20;10.48;;;;;;;2.37;100.00;101853.88;4822003;29;20038;-80
2021/01/05 09:00:27;;;;;;;16.27;10.07;;;;;;;2.39;100.00;101850.41;4808689;29;20033;-80
2021/01/05 09:02:53;;;;;;;19.92;12.23;;;;;;;2.41;100.00;101860.84;4824550;29;20050;-81
2021/01/05 09:05:18;;;;;;;20.23;12.23;;;;;;;2.32;100.00;101854.72;4823038;29;20030;-80
2021/01/05 09:07:43;;;;;;;17.50;11.25;;;;;;;2.33;100.00;101853.00;4824618;29;20057;-81
2021/01/05 09:10:15;;;;;;;15.48;10.55;;;;;;;2.41;100.00;101861.75;4821578;29;20066;-81
2021/01/05 09:12:41;;;;;;;16.65;11.13;;;;;;;2.36;100.00;101857.34;4822954;29;20114;-80
2021/01/05 09:15:07;;;;;;;19.02;10.98;;;;;;;2.48;100.00;101860.91;4824238;29;20483;-80
2021/01/05 09:17:32;;;;;;;17.33;11.25;;;;;;;2.42;100.00;101858.25;4817794;29;20034;-80
2021/01/05 09:19:58;;;;;;;16.33;11.65;;;;;;;2.51;100.00;101860.91;4822641;29;20049;-81
2021/01/05 09:22:24;;;;;;;23.23;13.25;;;;;;;2.52;100.00;101864.41;4824492;29;20052;-81
2021/01/05 09:24:51;;;;;;;18.58;11.18;;;;;;;2.53;100.00;101864.41;4825579;29;20053;-81
2021/01/05 09:27:16;;;;;;;17.15;10.73;;;;;;;2.57;100.00;101870.50;4822652;29;20109;-82
2021/01/05 09:29:41;;;;;;;16.13;10.68;;;;;;;2.58;100.00;101870.50;4826090;29;20133;-80
2021/01/05 09:32:07;;;;;;;18.27;11.63;;;;;;;2.57;100.00;101857.47;4825082;29;20079;-81
2021/01/05 09:34:32;;;;;;;18.83;11.90;;;;;;;2.60;100.00;101874.00;4823662;29;20037;-81
2021/01/05 09:36:58;;;;;;;15.50;10.00;;;;;;;2.68;100.00;101862.72;4823306;29;20050;-80
2021/01/05 09:39:23;;;;;;;17.75;11.38;;;;;;;2.69;100.00;101862.72;4830976;29;20034;-81
2021/01/05 09:42:01;;;;;;;16.77;11.07;;;;;;;2.70;100.00;101872.28;4818241;29;20065;-81
2021/01/05 09:44:27;;;;;;;40.55;12.52;;;;;;;2.70;100.00;101874.91;4801629;29;20042;-79
2021/01/05 09:46:56;;;;;;;17.52;11.07;;;;;;;2.78;100.00;101870.59;4822638;29;20034;-79
2021/01/05 09:49:22;;;;;;;16.00;10.48;;;;;;;2.79;99.61;101868.84;4813394;29;20035;-80
2021/01/05 09:51:48;;;;;;;17.10;10.98;;;;;;;2.74;99.60;101875.81;4820206;29;20065;-81
2021/01/05 09:54:15;;;;;;;15.68;11.05;;;;;;;2.74;99.75;101879.28;4823864;29;20068;-78
2021/01/05 09:56:41;;;;;;;19.00;11.63;;;;;;;2.74;99.82;101875.81;4820623;29;20395;-81
2021/01/05 09:59:06;;;;;;;19.73;12.15;;;;;;;2.85;99.19;101881.94;4808617;29;20036;-79
2021/01/05 10:01:33;;;;;;;17.35;11.23;;;;;;;2.87;99.11;101871.50;4806708;29;20030;-79
2021/01/05 10:03:59;;;;;;;15.63;10.38;;;;;;;3.01;98.59;101872.41;4821250;29;20110;-80
2021/01/05 10:06:30;;;;;;;15.05;11.05;;;;;;;3.01;98.61;101877.63;4820213;29;20038;-78
2021/01/05 10:08:55;;;;;;;18.25;10.80;;;;;;;3.21;98.54;101878.56;4816694;29;20034;-78
2021/01/05 10:11:21;;;;;;;18.27;11.75;;;;;;;3.21;97.96;101872.47;4800899;29;20392;-79
2021/01/05 10:13:46;;;;;;;16.08;11.10;;;;;;;3.19;98.57;101876.81;4823883;29;20659;-79
2021/01/05 10:16:12;;;;;;;19.10;12.27;;;;;;;3.19;98.06;101872.47;4818886;29;20120;-79
2021/01/05 10:18:37;;;;;;;17.60;12.13;;;;;;;3.09;98.00;101870.72;4820965;29;20100;-79
2021/01/05 10:21:03;;;;;;;19.10;12.05;;;;;;;3.30;97.56;101865.53;4819084;29;20030;-79
2021/01/05 10:23:28;;;;;;;16.73;11.45;;;;;;;3.30;96.95;101867.25;4823130;29;20045;-79
2021/01/05 10:25:53;;;;;;;18.52;12.23;;;;;;;3.29;97.13;101866.41;4809327;29;20133;-79
2021/01/05 10:28:19;;;;;;;24.60;13.25;;;;;;;3.25;97.42;101864.63;4805838;29;20037;-79
2021/01/05 10:30:44;;;;;;;19.50;12.35;;;;;;;3.24;97.81;101857.69;4824979;29;20048;-79
2021/01/05 10:33:09;;;;;;;16.15;11.52;;;;;;;3.25;97.74;101863.78;4822813;29;20027;-79
2021/01/05 10:35:35;;;;;;;19.30;11.65;;;;;;;3.25;97.60;101855.94;4826574;29;20129;-79
2021/01/05 10:38:00;;;;;;;17.67;12.02;;;;;;;3.22;97.86;101862.03;4809350;29;20045;-79
2021/01/05 10:40:26;;;;;;;17.17;11.38;;;;;;;3.26;97.74;101855.97;4827207;29;20561;-81
2021/01/05 10:42:51;;;;;;;18.35;12.13;;;;;;;3.09;97.74;101857.66;4805957;29;20042;-79
2021/01/05 10:45:20;;;;;;;21.33;13.88;;;;;;;3.07;98.63;101855.03;4819348;29;20734;-79
2021/01/05 10:47:47;;;;;;;46.92;20.73;;;;;;;3.24;98.43;101854.19;4818955;29;20029;-80
2021/01/05 10:50:17;;;;;;;22.25;13.15;;;;;;;3.16;98.54;101854.16;4823135;29;20551;-79
2021/01/05 10:52:44;;;;;;;17.55;11.63;;;;;;;3.24;98.44;101852.44;4810431;29;20076;-79
2021/01/05 10:55:10;;;;;;;22.02;13.38;;;;;;;3.31;97.99;101855.94;4819302;29;20121;-79
2021/01/05 10:57:36;;;;;;;20.58;12.10;;;;;;;3.24;97.96;101852.44;4820075;29;20039;-79
2021/01/05 11:00:05;;;;;;;21.42;12.90;;;;;;;3.26;98.03;101853.34;4800071;29;20467;-80
2021/01/05 11:02:30;;;;;;;19.85;12.13;;;;;;;3.24;98.16;101842.00;4820605;29;20110;-79
2021/01/05 11:04:56;;;;;;;21.98;13.57;;;;;;;3.26;98.47;101847.22;4820472;29;20497;-80
2021/01/05 11:07:21;;;;;;;19.02;13.30;;;;;;;3.27;98.08;101841.16;4820709;29;20041;-81
2021/01/05 11:09:47;;;;;;;19.73;12.82;;;;;;;3.26;98.18;101840.28;4806730;29;20045;-81
2021/01/05 11:12:22;;;;;;;26.10;13.52;;;;;;;3.29;98.21;101842.00;4805517;29;20518;-82
2021/01/05 11:14:47;;;;;;;19.23;12.68;;;;;;;3.32;98.40;101836.81;4819575;29;20099;-80
2021/01/05 11:17:12;;;;;;;24.95;13.85;;;;;;;3.25;98.71;101835.03;4807310;29;20399;-81
2021/01/05 11:19:40;;;;;;;20.85;12.60;;;;;;;3.27;98.77;101836.78;4816370;29;20062;-79
2021/01/05 11:22:07;;;;;;;18.08;11.75;;;;;;;3.22;98.77;101832.44;4801396;29;20038;-79
2021/01/05 11:24:35;;;;;;;18.95;12.27;;;;;;;3.33;98.42;101833.31;4819199;29;20038;-79
2021/01/05 11:27:03;;;;;;;18.27;12.63;;;;;;;3.26;98.43;101835.06;4823238;29;20062;-80
2021/01/05 11:29:28;;;;;;;20.63;14.15;;;;;;;3.22;98.36;101838.53;4821109;29;20022;-80
2021/01/05 11:31:56;;;;;;;21.02;13.35;;;;;;;3.35;98.72;101823.72;4804554;29;20480;-80